sensor_id;sensor_type;location;lat;lon;timestamp;P1;durP1;ratioP1;P2;durP2;ratioP2
18623;SDS011;9441;51.420;7.036;2022-11-14T00:00:37;23.53;;;10.77;;
18623;SDS011;9441;51.420;7.036;2022-11-14T00:01:57;24.43;;;12.10;;
18623;SDS011;9441;51.420;7.036;2022-11-14T00:03:17;18.73;;;10.97;;
18623;SDS011;9441;51.420;7.036;2022-11-14T00:04:38;20.97;;;10.73;;
18623;SDS011;9441;51.420;7.036;2022-11-14T00:05:58;21.50;;;11.07;;
18623;SDS011;9441;51.420;7.036;2022-11-14T00:07:18;19.77;;;10.90;;
18623;SDS011;9441;51.420;7.036;2022-11-14T00:08:38;20.27;;;11.50;;
18623;SDS011;9441;51.420;7.036;2022-11-14T00:09:59;19.50;;;11.30;;
18623;SDS011;9441;51.420;7.036;2022-11-14T00:11:19;18.40;;;11.27;;
18623;SDS011;9441;51.420;7.036;2022-11-14T00:12:40;26.03;;;11.97;;
18623;SDS011;9441;51.420;7.036;2022-11-14T00:14:01;21.07;;;11.17;;
18623;SDS011;9441;51.420;7.036;2022-11-14T00:15:22;20.37;;;11.37;;
18623;SDS011;9441;51.420;7.036;2022-11-14T00:16:43;21.47;;;10.57;;
18623;SDS011;9441;51.420;7.036;2022-11-14T00:18:03;20.93;;;10.50;;
18623;SDS011;9441;51.420;7.036;2022-11-14T00:19:24;19.30;;;11.20;;
18623;SDS011;9441;51.420;7.036;2022-11-14T00:20:46;21.17;;;11.40;;
18623;SDS011;9441;51.420;7.036;2022-11-14T00:22:05;24.73;;;11.80;;
18623;SDS011;9441;51.420;7.036;2022-11-14T00:23:26;21.23;;;10.77;;
18623;SDS011;9441;51.420;7.036;2022-11-14T00:24:46;19.33;;;11.23;;
18623;SDS011;9441;51.420;7.036;2022-11-14T00:26:06;22.23;;;12.43;;
18623;SDS011;9441;51.420;7.036;2022-11-14T00:27:26;20.47;;;11.40;;
18623;SDS011;9441;51.420;7.036;2022-11-14T00:28:46;21.03;;;11.50;;
18623;SDS011;9441;51.420;7.036;2022-11-14T00:30:09;20.37;;;11.67;;
18623;SDS011;9441;51.420;7.036;2022-11-14T00:31:29;22.13;;;11.57;;
18623;SDS011;9441;51.420;7.036;2022-11-14T00:32:49;21.00;;;11.40;;
18623;SDS011;9441;51.420;7.036;2022-11-14T00:34:10;20.90;;;11.13;;
18623;SDS011;9441;51.420;7.036;2022-11-14T00:35:31;21.07;;;10.80;;
18623;SDS011;9441;51.420;7.036;2022-11-14T00:36:51;19.03;;;11.20;;
18623;SDS011;9441;51.420;7.036;2022-11-14T00:38:11;20.50;;;11.77;;
18623;SDS011;9441;51.420;7.036;2022-11-14T00:39:32;20.07;;;11.23;;
18623;SDS011;9441;51.420;7.036;2022-11-14T00:40:53;22.97;;;12.00;;
18623;SDS011;9441;51.420;7.036;2022-11-14T00:42:13;22.77;;;11.30;;
18623;SDS011;9441;51.420;7.036;2022-11-14T00:43:34;20.60;;;11.63;;
18623;SDS011;9441;51.420;7.036;2022-11-14T00:44:54;22.47;;;12.00;;
18623;SDS011;9441;51.420;7.036;2022-11-14T00:46:16;22.17;;;11.73;;
18623;SDS011;9441;51.420;7.036;2022-11-14T00:47:36;20.30;;;11.97;;
18623;SDS011;9441;51.420;7.036;2022-11-14T00:48:57;19.30;;;11.60;;
18623;SDS011;9441;51.420;7.036;2022-11-14T00:50:17;19.93;;;11.77;;
18623;SDS011;9441;51.420;7.036;2022-11-14T00:51:38;23.17;;;11.83;;
18623;SDS011;9441;51.420;7.036;2022-11-14T00:52:58;19.57;;;11.80;;
18623;SDS011;9441;51.420;7.036;2022-11-14T00:54:18;22.13;;;12.73;;
18623;SDS011;9441;51.420;7.036;2022-11-14T00:55:38;22.73;;;12.90;;
18623;SDS011;9441;51.420;7.036;2022-11-14T00:56:59;24.37;;;14.37;;
18623;SDS011;9441;51.420;7.036;2022-11-14T00:58:19;23.53;;;13.43;;
18623;SDS011;9441;51.420;7.036;2022-11-14T00:59:38;24.00;;;12.60;;
18623;SDS011;9441;51.420;7.036;2022-11-14T01:00:59;22.13;;;12.57;;
18623;SDS011;9441;51.420;7.036;2022-11-14T01:02:20;22.37;;;12.27;;
18623;SDS011;9441;51.420;7.036;2022-11-14T01:03:41;22.43;;;12.40;;
18623;SDS011;9441;51.420;7.036;2022-11-14T01:05:00;22.23;;;12.43;;
18623;SDS011;9441;51.420;7.036;2022-11-14T01:06:21;22.80;;;11.63;;
18623;SDS011;9441;51.420;7.036;2022-11-14T01:07:40;23.47;;;11.50;;
18623;SDS011;9441;51.420;7.036;2022-11-14T01:09:01;25.80;;;12.73;;
18623;SDS011;9441;51.420;7.036;2022-11-14T01:10:21;24.07;;;12.30;;
18623;SDS011;9441;51.420;7.036;2022-11-14T01:11:41;20.07;;;11.67;;
18623;SDS011;9441;51.420;7.036;2022-11-14T01:13:01;21.73;;;11.73;;
18623;SDS011;9441;51.420;7.036;2022-11-14T01:14:22;19.93;;;11.37;;
18623;SDS011;9441;51.420;7.036;2022-11-14T01:15:46;24.77;;;11.47;;
18623;SDS011;9441;51.420;7.036;2022-11-14T01:17:08;22.73;;;11.80;;
18623;SDS011;9441;51.420;7.036;2022-11-14T01:18:30;20.40;;;12.03;;
18623;SDS011;9441;51.420;7.036;2022-11-14T01:19:50;25.33;;;12.20;;
18623;SDS011;9441;51.420;7.036;2022-11-14T01:21:11;22.27;;;11.23;;
18623;SDS011;9441;51.420;7.036;2022-11-14T01:22:32;17.87;;;11.40;;
18623;SDS011;9441;51.420;7.036;2022-11-14T01:23:52;18.63;;;11.30;;
18623;SDS011;9441;51.420;7.036;2022-11-14T01:25:13;25.07;;;11.60;;
18623;SDS011;9441;51.420;7.036;2022-11-14T01:26:33;21.87;;;10.90;;
18623;SDS011;9441;51.420;7.036;2022-11-14T01:27:53;22.80;;;12.47;;
18623;SDS011;9441;51.420;7.036;2022-11-14T01:29:13;19.90;;;11.23;;
18623;SDS011;9441;51.420;7.036;2022-11-14T01:30:33;21.80;;;11.53;;
18623;SDS011;9441;51.420;7.036;2022-11-14T01:31:53;21.00;;;12.33;;
18623;SDS011;9441;51.420;7.036;2022-11-14T01:33:13;19.03;;;11.83;;
18623;SDS011;9441;51.420;7.036;2022-11-14T01:34:34;23.97;;;12.27;;
18623;SDS011;9441;51.420;7.036;2022-11-14T01:35:55;25.00;;;12.03;;
18623;SDS011;9441;51.420;7.036;2022-11-14T01:37:17;21.30;;;11.30;;
18623;SDS011;9441;51.420;7.036;2022-11-14T01:38:38;18.80;;;11.67;;
18623;SDS011;9441;51.420;7.036;2022-11-14T01:39:58;19.43;;;10.97;;
18623;SDS011;9441;51.420;7.036;2022-11-14T01:41:19;21.20;;;11.90;;
18623;SDS011;9441;51.420;7.036;2022-11-14T01:42:39;19.50;;;11.10;;
18623;SDS011;9441;51.420;7.036;2022-11-14T01:43:59;21.53;;;11.57;;
18623;SDS011;9441;51.420;7.036;2022-11-14T01:47:05;21.27;;;11.03;;
18623;SDS011;9441;51.420;7.036;2022-11-14T01:48:27;20.47;;;11.33;;
18623;SDS011;9441;51.420;7.036;2022-11-14T01:49:55;19.53;;;11.17;;
18623;SDS011;9441;51.420;7.036;2022-11-14T01:51:19;20.10;;;12.20;;
18623;SDS011;9441;51.420;7.036;2022-11-14T01:52:42;20.13;;;12.07;;
18623;SDS011;9441;51.420;7.036;2022-11-14T01:54:05;18.90;;;11.30;;
18623;SDS011;9441;51.420;7.036;2022-11-14T01:55:28;20.20;;;11.30;;
18623;SDS011;9441;51.420;7.036;2022-11-14T01:56:49;20.73;;;11.30;;
18623;SDS011;9441;51.420;7.036;2022-11-14T01:58:15;21.83;;;11.27;;
18623;SDS011;9441;51.420;7.036;2022-11-14T01:59:35;19.07;;;11.17;;
18623;SDS011;9441;51.420;7.036;2022-11-14T02:00:57;18.33;;;11.30;;
18623;SDS011;9441;51.420;7.036;2022-11-14T02:02:19;20.77;;;11.67;;
18623;SDS011;9441;51.420;7.036;2022-11-14T02:03:40;19.47;;;11.37;;
18623;SDS011;9441;51.420;7.036;2022-11-14T02:05:06;18.63;;;11.30;;
18623;SDS011;9441;51.420;7.036;2022-11-14T02:06:30;18.40;;;11.23;;
18623;SDS011;9441;51.420;7.036;2022-11-14T02:07:50;20.00;;;11.10;;
18623;SDS011;9441;51.420;7.036;2022-11-14T02:09:11;18.30;;;10.73;;
18623;SDS011;9441;51.420;7.036;2022-11-14T02:10:32;20.30;;;10.97;;
18623;SDS011;9441;51.420;7.036;2022-11-14T02:11:53;18.73;;;11.00;;
18623;SDS011;9441;51.420;7.036;2022-11-14T02:13:16;17.77;;;11.17;;
18623;SDS011;9441;51.420;7.036;2022-11-14T02:14:36;22.53;;;11.50;;
18623;SDS011;9441;51.420;7.036;2022-11-14T02:15:57;21.97;;;10.83;;
18623;SDS011;9441;51.420;7.036;2022-11-14T02:17:17;19.10;;;11.10;;
18623;SDS011;9441;51.420;7.036;2022-11-14T02:18:38;17.23;;;10.80;;
18623;SDS011;9441;51.420;7.036;2022-11-14T02:20:19;17.70;;;10.40;;
18623;SDS011;9441;51.420;7.036;2022-11-14T02:21:41;19.10;;;10.20;;
18623;SDS011;9441;51.420;7.036;2022-11-14T02:23:01;17.43;;;10.57;;
18623;SDS011;9441;51.420;7.036;2022-11-14T02:24:21;17.43;;;10.37;;
18623;SDS011;9441;51.420;7.036;2022-11-14T02:25:42;16.77;;;10.93;;
18623;SDS011;9441;51.420;7.036;2022-11-14T02:27:02;19.77;;;10.40;;
18623;SDS011;9441;51.420;7.036;2022-11-14T02:28:25;18.60;;;9.80;;
18623;SDS011;9441;51.420;7.036;2022-11-14T02:29:44;20.57;;;10.97;;
18623;SDS011;9441;51.420;7.036;2022-11-14T02:31:05;17.33;;;10.90;;
18623;SDS011;9441;51.420;7.036;2022-11-14T02:32:25;17.07;;;9.87;;
18623;SDS011;9441;51.420;7.036;2022-11-14T02:33:45;17.00;;;10.47;;
18623;SDS011;9441;51.420;7.036;2022-11-14T02:35:05;17.87;;;10.47;;
18623;SDS011;9441;51.420;7.036;2022-11-14T02:36:27;16.10;;;10.13;;
18623;SDS011;9441;51.420;7.036;2022-11-14T02:37:47;24.67;;;10.50;;
18623;SDS011;9441;51.420;7.036;2022-11-14T02:39:07;18.00;;;10.83;;
18623;SDS011;9441;51.420;7.036;2022-11-14T02:40:28;20.40;;;10.80;;
18623;SDS011;9441;51.420;7.036;2022-11-14T02:41:48;18.47;;;9.40;;
18623;SDS011;9441;51.420;7.036;2022-11-14T02:43:08;19.93;;;10.90;;
18623;SDS011;9441;51.420;7.036;2022-11-14T02:44:29;20.47;;;9.97;;
18623;SDS011;9441;51.420;7.036;2022-11-14T02:45:50;18.87;;;10.00;;
18623;SDS011;9441;51.420;7.036;2022-11-14T02:47:10;19.40;;;10.60;;
18623;SDS011;9441;51.420;7.036;2022-11-14T02:48:30;21.87;;;10.67;;
18623;SDS011;9441;51.420;7.036;2022-11-14T02:49:50;17.97;;;10.37;;
18623;SDS011;9441;51.420;7.036;2022-11-14T02:51:10;20.67;;;10.43;;
18623;SDS011;9441;51.420;7.036;2022-11-14T02:52:32;18.50;;;10.03;;
18623;SDS011;9441;51.420;7.036;2022-11-14T02:53:52;16.83;;;10.10;;
18623;SDS011;9441;51.420;7.036;2022-11-14T02:55:12;18.30;;;10.20;;
18623;SDS011;9441;51.420;7.036;2022-11-14T02:56:32;19.93;;;10.23;;
18623;SDS011;9441;51.420;7.036;2022-11-14T02:57:52;22.57;;;10.00;;
18623;SDS011;9441;51.420;7.036;2022-11-14T02:59:13;17.03;;;10.17;;
18623;SDS011;9441;51.420;7.036;2022-11-14T03:00:34;21.33;;;10.37;;
18623;SDS011;9441;51.420;7.036;2022-11-14T03:01:54;20.57;;;9.90;;
18623;SDS011;9441;51.420;7.036;2022-11-14T03:03:14;15.97;;;9.80;;
18623;SDS011;9441;51.420;7.036;2022-11-14T03:04:35;19.20;;;9.67;;
18623;SDS011;9441;51.420;7.036;2022-11-14T03:05:57;15.47;;;9.80;;
18623;SDS011;9441;51.420;7.036;2022-11-14T03:07:18;17.27;;;9.90;;
18623;SDS011;9441;51.420;7.036;2022-11-14T03:08:40;16.37;;;10.17;;
18623;SDS011;9441;51.420;7.036;2022-11-14T03:10:01;19.33;;;9.90;;
18623;SDS011;9441;51.420;7.036;2022-11-14T03:11:21;16.00;;;9.30;;
18623;SDS011;9441;51.420;7.036;2022-11-14T03:12:41;16.40;;;9.30;;
18623;SDS011;9441;51.420;7.036;2022-11-14T03:14:01;17.27;;;9.93;;
18623;SDS011;9441;51.420;7.036;2022-11-14T03:15:22;15.23;;;9.20;;
18623;SDS011;9441;51.420;7.036;2022-11-14T03:16:42;18.77;;;9.50;;
18623;SDS011;9441;51.420;7.036;2022-11-14T03:18:03;14.93;;;9.60;;
18623;SDS011;9441;51.420;7.036;2022-11-14T03:19:22;14.70;;;9.30;;
18623;SDS011;9441;51.420;7.036;2022-11-14T03:20:43;18.50;;;9.87;;
18623;SDS011;9441;51.420;7.036;2022-11-14T03:22:03;15.00;;;9.00;;
18623;SDS011;9441;51.420;7.036;2022-11-14T03:23:23;14.03;;;9.20;;
18623;SDS011;9441;51.420;7.036;2022-11-14T03:24:44;14.87;;;9.20;;
18623;SDS011;9441;51.420;7.036;2022-11-14T03:26:06;15.07;;;9.40;;
18623;SDS011;9441;51.420;7.036;2022-11-14T03:27:27;16.47;;;9.40;;
18623;SDS011;9441;51.420;7.036;2022-11-14T03:28:47;15.83;;;9.13;;
18623;SDS011;9441;51.420;7.036;2022-11-14T03:30:09;16.93;;;9.90;;
18623;SDS011;9441;51.420;7.036;2022-11-14T03:31:30;17.67;;;9.23;;
18623;SDS011;9441;51.420;7.036;2022-11-14T03:32:50;14.93;;;9.33;;
18623;SDS011;9441;51.420;7.036;2022-11-14T03:34:10;19.90;;;9.23;;
18623;SDS011;9441;51.420;7.036;2022-11-14T03:35:30;16.77;;;9.37;;
18623;SDS011;9441;51.420;7.036;2022-11-14T03:36:51;17.57;;;9.80;;
18623;SDS011;9441;51.420;7.036;2022-11-14T03:38:10;16.93;;;9.00;;
18623;SDS011;9441;51.420;7.036;2022-11-14T03:39:31;17.60;;;10.03;;
18623;SDS011;9441;51.420;7.036;2022-11-14T03:40:52;15.77;;;9.43;;
18623;SDS011;9441;51.420;7.036;2022-11-14T03:42:13;17.77;;;9.53;;
18623;SDS011;9441;51.420;7.036;2022-11-14T03:43:33;15.70;;;9.63;;
18623;SDS011;9441;51.420;7.036;2022-11-14T03:44:53;18.97;;;9.57;;
18623;SDS011;9441;51.420;7.036;2022-11-14T03:46:13;15.13;;;9.43;;
18623;SDS011;9441;51.420;7.036;2022-11-14T03:47:34;16.77;;;8.97;;
18623;SDS011;9441;51.420;7.036;2022-11-14T03:48:57;16.27;;;9.97;;
18623;SDS011;9441;51.420;7.036;2022-11-14T03:50:17;18.20;;;10.33;;
18623;SDS011;9441;51.420;7.036;2022-11-14T03:51:38;15.63;;;10.03;;
18623;SDS011;9441;51.420;7.036;2022-11-14T03:52:58;18.83;;;10.07;;
18623;SDS011;9441;51.420;7.036;2022-11-14T03:54:18;18.70;;;9.40;;
18623;SDS011;9441;51.420;7.036;2022-11-14T03:55:38;19.97;;;10.33;;
18623;SDS011;9441;51.420;7.036;2022-11-14T03:57:00;16.93;;;9.97;;
18623;SDS011;9441;51.420;7.036;2022-11-14T03:58:21;18.53;;;10.53;;
18623;SDS011;9441;51.420;7.036;2022-11-14T03:59:40;18.77;;;10.57;;
18623;SDS011;9441;51.420;7.036;2022-11-14T04:01:01;17.03;;;10.63;;
18623;SDS011;9441;51.420;7.036;2022-11-14T04:02:21;17.23;;;11.23;;
18623;SDS011;9441;51.420;7.036;2022-11-14T04:03:41;21.67;;;10.90;;
18623;SDS011;9441;51.420;7.036;2022-11-14T04:05:01;17.87;;;10.87;;
18623;SDS011;9441;51.420;7.036;2022-11-14T04:06:21;20.50;;;11.43;;
18623;SDS011;9441;51.420;7.036;2022-11-14T04:07:41;20.57;;;11.17;;
18623;SDS011;9441;51.420;7.036;2022-11-14T04:09:02;20.87;;;11.27;;
18623;SDS011;9441;51.420;7.036;2022-11-14T04:10:23;19.17;;;11.37;;
18623;SDS011;9441;51.420;7.036;2022-11-14T04:11:43;17.87;;;10.93;;
18623;SDS011;9441;51.420;7.036;2022-11-14T04:13:04;19.73;;;10.37;;
18623;SDS011;9441;51.420;7.036;2022-11-14T04:14:25;16.90;;;10.33;;
18623;SDS011;9441;51.420;7.036;2022-11-14T04:15:45;22.10;;;10.60;;
18623;SDS011;9441;51.420;7.036;2022-11-14T04:17:05;15.53;;;9.57;;
18623;SDS011;9441;51.420;7.036;2022-11-14T04:18:25;14.83;;;8.80;;
18623;SDS011;9441;51.420;7.036;2022-11-14T04:19:46;16.57;;;9.33;;
18623;SDS011;9441;51.420;7.036;2022-11-14T04:21:06;17.23;;;9.53;;
18623;SDS011;9441;51.420;7.036;2022-11-14T04:22:25;15.03;;;8.37;;
18623;SDS011;9441;51.420;7.036;2022-11-14T04:23:46;12.30;;;7.53;;
18623;SDS011;9441;51.420;7.036;2022-11-14T04:25:06;15.73;;;7.63;;
18623;SDS011;9441;51.420;7.036;2022-11-14T04:26:27;14.07;;;7.67;;
18623;SDS011;9441;51.420;7.036;2022-11-14T04:27:47;11.47;;;6.50;;
18623;SDS011;9441;51.420;7.036;2022-11-14T04:29:08;13.10;;;7.33;;
18623;SDS011;9441;51.420;7.036;2022-11-14T04:30:29;12.33;;;7.47;;
18623;SDS011;9441;51.420;7.036;2022-11-14T04:31:48;11.13;;;6.73;;
18623;SDS011;9441;51.420;7.036;2022-11-14T04:33:09;12.17;;;6.90;;
18623;SDS011;9441;51.420;7.036;2022-11-14T04:34:29;11.20;;;6.67;;
18623;SDS011;9441;51.420;7.036;2022-11-14T04:35:49;12.33;;;6.53;;
18623;SDS011;9441;51.420;7.036;2022-11-14T04:37:09;8.97;;;6.17;;
18623;SDS011;9441;51.420;7.036;2022-11-14T04:38:30;12.50;;;7.00;;
18623;SDS011;9441;51.420;7.036;2022-11-14T04:39:50;14.97;;;7.07;;
18623;SDS011;9441;51.420;7.036;2022-11-14T04:41:19;11.83;;;6.60;;
18623;SDS011;9441;51.420;7.036;2022-11-14T04:42:39;12.27;;;6.93;;
18623;SDS011;9441;51.420;7.036;2022-11-14T04:43:59;10.97;;;6.40;;
18623;SDS011;9441;51.420;7.036;2022-11-14T04:45:21;10.83;;;7.23;;
18623;SDS011;9441;51.420;7.036;2022-11-14T04:46:41;17.87;;;11.17;;
18623;SDS011;9441;51.420;7.036;2022-11-14T04:48:02;17.80;;;10.40;;
18623;SDS011;9441;51.420;7.036;2022-11-14T04:49:22;17.80;;;10.30;;
18623;SDS011;9441;51.420;7.036;2022-11-14T04:50:45;25.60;;;11.40;;
18623;SDS011;9441;51.420;7.036;2022-11-14T04:52:04;23.57;;;11.57;;
18623;SDS011;9441;51.420;7.036;2022-11-14T04:53:25;19.27;;;11.17;;
18623;SDS011;9441;51.420;7.036;2022-11-14T04:54:46;20.03;;;11.60;;
18623;SDS011;9441;51.420;7.036;2022-11-14T04:56:05;23.83;;;13.73;;
18623;SDS011;9441;51.420;7.036;2022-11-14T04:57:26;18.73;;;11.87;;
18623;SDS011;9441;51.420;7.036;2022-11-14T04:58:46;24.37;;;12.77;;
18623;SDS011;9441;51.420;7.036;2022-11-14T05:00:07;20.87;;;13.13;;
18623;SDS011;9441;51.420;7.036;2022-11-14T05:01:29;19.53;;;12.67;;
18623;SDS011;9441;51.420;7.036;2022-11-14T05:02:49;20.23;;;12.87;;
18623;SDS011;9441;51.420;7.036;2022-11-14T05:04:10;21.87;;;12.80;;
18623;SDS011;9441;51.420;7.036;2022-11-14T05:05:30;21.40;;;12.50;;
18623;SDS011;9441;51.420;7.036;2022-11-14T05:06:50;23.53;;;13.40;;
18623;SDS011;9441;51.420;7.036;2022-11-14T05:08:10;22.00;;;12.43;;
18623;SDS011;9441;51.420;7.036;2022-11-14T05:09:31;20.07;;;12.10;;
18623;SDS011;9441;51.420;7.036;2022-11-14T05:10:51;20.00;;;12.17;;
18623;SDS011;9441;51.420;7.036;2022-11-14T05:12:11;22.43;;;12.90;;
18623;SDS011;9441;51.420;7.036;2022-11-14T05:13:31;18.23;;;11.50;;
18623;SDS011;9441;51.420;7.036;2022-11-14T05:14:51;25.20;;;12.17;;
18623;SDS011;9441;51.420;7.036;2022-11-14T05:16:12;20.33;;;11.60;;
18623;SDS011;9441;51.420;7.036;2022-11-14T05:17:34;17.57;;;10.43;;
18623;SDS011;9441;51.420;7.036;2022-11-14T05:18:53;20.53;;;11.00;;
18623;SDS011;9441;51.420;7.036;2022-11-14T05:20:14;24.20;;;12.30;;
18623;SDS011;9441;51.420;7.036;2022-11-14T05:21:35;18.13;;;10.27;;
18623;SDS011;9441;51.420;7.036;2022-11-14T05:22:54;22.63;;;10.90;;
18623;SDS011;9441;51.420;7.036;2022-11-14T05:24:16;21.10;;;10.43;;
18623;SDS011;9441;51.420;7.036;2022-11-14T05:25:37;15.27;;;9.10;;
18623;SDS011;9441;51.420;7.036;2022-11-14T05:26:58;16.37;;;9.27;;
18623;SDS011;9441;51.420;7.036;2022-11-14T05:28:17;19.60;;;9.90;;
18623;SDS011;9441;51.420;7.036;2022-11-14T05:29:38;15.67;;;9.10;;
18623;SDS011;9441;51.420;7.036;2022-11-14T05:31:01;19.20;;;9.37;;
18623;SDS011;9441;51.420;7.036;2022-11-14T05:32:22;14.87;;;8.97;;
18623;SDS011;9441;51.420;7.036;2022-11-14T05:33:44;15.07;;;8.63;;
18623;SDS011;9441;51.420;7.036;2022-11-14T05:35:06;15.33;;;8.83;;
18623;SDS011;9441;51.420;7.036;2022-11-14T05:36:27;13.97;;;8.20;;
18623;SDS011;9441;51.420;7.036;2022-11-14T05:37:48;15.20;;;8.40;;
18623;SDS011;9441;51.420;7.036;2022-11-14T05:39:08;12.40;;;7.60;;
18623;SDS011;9441;51.420;7.036;2022-11-14T05:40:29;14.17;;;8.30;;
18623;SDS011;9441;51.420;7.036;2022-11-14T05:41:49;12.67;;;7.47;;
18623;SDS011;9441;51.420;7.036;2022-11-14T05:43:10;13.23;;;7.63;;
18623;SDS011;9441;51.420;7.036;2022-11-14T05:44:31;14.67;;;8.10;;
18623;SDS011;9441;51.420;7.036;2022-11-14T05:45:51;13.50;;;7.83;;
18623;SDS011;9441;51.420;7.036;2022-11-14T05:47:11;12.73;;;7.60;;
18623;SDS011;9441;51.420;7.036;2022-11-14T05:48:32;12.33;;;7.47;;
18623;SDS011;9441;51.420;7.036;2022-11-14T05:49:53;11.67;;;7.57;;
18623;SDS011;9441;51.420;7.036;2022-11-14T05:51:14;13.67;;;7.40;;
18623;SDS011;9441;51.420;7.036;2022-11-14T05:52:34;17.70;;;7.60;;
18623;SDS011;9441;51.420;7.036;2022-11-14T05:53:55;13.63;;;7.90;;
18623;SDS011;9441;51.420;7.036;2022-11-14T05:55:16;14.73;;;8.40;;
18623;SDS011;9441;51.420;7.036;2022-11-14T05:56:36;13.03;;;7.93;;
18623;SDS011;9441;51.420;7.036;2022-11-14T05:57:56;12.77;;;7.90;;
18623;SDS011;9441;51.420;7.036;2022-11-14T05:59:17;12.13;;;7.33;;
18623;SDS011;9441;51.420;7.036;2022-11-14T06:00:36;13.67;;;7.27;;
18623;SDS011;9441;51.420;7.036;2022-11-14T06:01:57;13.67;;;7.67;;
18623;SDS011;9441;51.420;7.036;2022-11-14T06:03:17;12.70;;;7.67;;
18623;SDS011;9441;51.420;7.036;2022-11-14T06:04:38;14.60;;;7.63;;
18623;SDS011;9441;51.420;7.036;2022-11-14T06:06:00;14.57;;;7.40;;
18623;SDS011;9441;51.420;7.036;2022-11-14T06:07:21;11.13;;;6.93;;
18623;SDS011;9441;51.420;7.036;2022-11-14T06:08:41;11.33;;;7.30;;
18623;SDS011;9441;51.420;7.036;2022-11-14T06:10:02;11.40;;;6.93;;
18623;SDS011;9441;51.420;7.036;2022-11-14T06:11:22;12.50;;;7.30;;
18623;SDS011;9441;51.420;7.036;2022-11-14T06:12:43;11.17;;;7.00;;
18623;SDS011;9441;51.420;7.036;2022-11-14T06:14:03;11.13;;;7.23;;
18623;SDS011;9441;51.420;7.036;2022-11-14T06:15:26;15.37;;;7.37;;
18623;SDS011;9441;51.420;7.036;2022-11-14T06:16:47;12.40;;;7.13;;
18623;SDS011;9441;51.420;7.036;2022-11-14T06:18:07;10.87;;;6.73;;
18623;SDS011;9441;51.420;7.036;2022-11-14T06:19:27;12.77;;;7.17;;
18623;SDS011;9441;51.420;7.036;2022-11-14T06:20:47;13.10;;;7.27;;
18623;SDS011;9441;51.420;7.036;2022-11-14T06:22:09;11.57;;;7.30;;
18623;SDS011;9441;51.420;7.036;2022-11-14T06:23:30;13.90;;;7.63;;
18623;SDS011;9441;51.420;7.036;2022-11-14T06:24:50;14.17;;;7.93;;
18623;SDS011;9441;51.420;7.036;2022-11-14T06:26:13;13.83;;;7.80;;
18623;SDS011;9441;51.420;7.036;2022-11-14T06:27:38;13.00;;;7.47;;
18623;SDS011;9441;51.420;7.036;2022-11-14T06:28:59;15.23;;;8.10;;
18623;SDS011;9441;51.420;7.036;2022-11-14T06:30:20;17.37;;;8.33;;
18623;SDS011;9441;51.420;7.036;2022-11-14T06:31:40;11.63;;;7.70;;
18623;SDS011;9441;51.420;7.036;2022-11-14T06:33:01;19.57;;;8.20;;
18623;SDS011;9441;51.420;7.036;2022-11-14T06:34:21;15.60;;;7.87;;
18623;SDS011;9441;51.420;7.036;2022-11-14T06:35:42;13.80;;;7.73;;
18623;SDS011;9441;51.420;7.036;2022-11-14T06:37:03;15.03;;;8.23;;
18623;SDS011;9441;51.420;7.036;2022-11-14T06:38:25;13.47;;;8.50;;
18623;SDS011;9441;51.420;7.036;2022-11-14T06:39:46;17.00;;;9.30;;
18623;SDS011;9441;51.420;7.036;2022-11-14T06:41:07;15.63;;;8.03;;
18623;SDS011;9441;51.420;7.036;2022-11-14T06:42:28;14.87;;;7.50;;
18623;SDS011;9441;51.420;7.036;2022-11-14T06:43:50;14.40;;;7.07;;
18623;SDS011;9441;51.420;7.036;2022-11-14T06:45:12;11.80;;;7.57;;
18623;SDS011;9441;51.420;7.036;2022-11-14T06:46:33;16.17;;;7.77;;
18623;SDS011;9441;51.420;7.036;2022-11-14T06:47:56;13.97;;;7.67;;
18623;SDS011;9441;51.420;7.036;2022-11-14T06:49:16;16.20;;;7.87;;
18623;SDS011;9441;51.420;7.036;2022-11-14T06:50:36;16.13;;;7.87;;
18623;SDS011;9441;51.420;7.036;2022-11-14T06:51:56;15.17;;;8.07;;
18623;SDS011;9441;51.420;7.036;2022-11-14T06:53:16;11.80;;;6.50;;
18623;SDS011;9441;51.420;7.036;2022-11-14T06:54:37;11.90;;;7.47;;
18623;SDS011;9441;51.420;7.036;2022-11-14T06:55:58;14.13;;;7.67;;
18623;SDS011;9441;51.420;7.036;2022-11-14T06:57:21;13.20;;;7.47;;
18623;SDS011;9441;51.420;7.036;2022-11-14T06:58:42;13.70;;;8.60;;
18623;SDS011;9441;51.420;7.036;2022-11-14T07:00:05;13.00;;;6.77;;
18623;SDS011;9441;51.420;7.036;2022-11-14T07:01:26;11.97;;;7.00;;
18623;SDS011;9441;51.420;7.036;2022-11-14T07:02:47;13.27;;;7.77;;
18623;SDS011;9441;51.420;7.036;2022-11-14T07:04:08;14.07;;;7.53;;
18623;SDS011;9441;51.420;7.036;2022-11-14T07:05:28;14.20;;;7.03;;
18623;SDS011;9441;51.420;7.036;2022-11-14T07:06:49;12.20;;;7.53;;
18623;SDS011;9441;51.420;7.036;2022-11-14T07:08:09;10.33;;;6.93;;
18623;SDS011;9441;51.420;7.036;2022-11-14T07:09:29;13.20;;;7.70;;
18623;SDS011;9441;51.420;7.036;2022-11-14T07:10:51;13.03;;;7.60;;
18623;SDS011;9441;51.420;7.036;2022-11-14T07:12:12;14.23;;;7.83;;
18623;SDS011;9441;51.420;7.036;2022-11-14T07:13:33;11.93;;;7.70;;
18623;SDS011;9441;51.420;7.036;2022-11-14T07:14:54;17.63;;;8.17;;
18623;SDS011;9441;51.420;7.036;2022-11-14T07:16:14;13.87;;;7.43;;
18623;SDS011;9441;51.420;7.036;2022-11-14T07:17:35;15.17;;;8.63;;
18623;SDS011;9441;51.420;7.036;2022-11-14T07:18:55;14.73;;;8.40;;
18623;SDS011;9441;51.420;7.036;2022-11-14T07:20:16;16.03;;;9.93;;
18623;SDS011;9441;51.420;7.036;2022-11-14T07:21:37;17.47;;;9.37;;
18623;SDS011;9441;51.420;7.036;2022-11-14T07:22:57;19.40;;;10.27;;
18623;SDS011;9441;51.420;7.036;2022-11-14T07:24:18;19.53;;;9.93;;
18623;SDS011;9441;51.420;7.036;2022-11-14T07:25:38;20.57;;;10.00;;
18623;SDS011;9441;51.420;7.036;2022-11-14T07:27:00;22.40;;;11.00;;
18623;SDS011;9441;51.420;7.036;2022-11-14T07:28:26;23.53;;;11.37;;
18623;SDS011;9441;51.420;7.036;2022-11-14T07:29:46;22.23;;;11.30;;
18623;SDS011;9441;51.420;7.036;2022-11-14T07:31:11;19.17;;;10.73;;
18623;SDS011;9441;51.420;7.036;2022-11-14T07:32:32;18.50;;;11.00;;
18623;SDS011;9441;51.420;7.036;2022-11-14T07:33:53;23.47;;;11.80;;
18623;SDS011;9441;51.420;7.036;2022-11-14T07:35:13;21.60;;;10.87;;
18623;SDS011;9441;51.420;7.036;2022-11-14T07:36:34;18.57;;;9.93;;
18623;SDS011;9441;51.420;7.036;2022-11-14T07:37:59;20.73;;;11.27;;
18623;SDS011;9441;51.420;7.036;2022-11-14T07:39:21;15.93;;;9.33;;
18623;SDS011;9441;51.420;7.036;2022-11-14T07:40:42;22.90;;;9.60;;
18623;SDS011;9441;51.420;7.036;2022-11-14T07:42:03;14.97;;;8.80;;
18623;SDS011;9441;51.420;7.036;2022-11-14T07:43:24;18.37;;;10.33;;
18623;SDS011;9441;51.420;7.036;2022-11-14T07:44:45;17.97;;;9.23;;
18623;SDS011;9441;51.420;7.036;2022-11-14T07:46:07;17.50;;;8.67;;
18623;SDS011;9441;51.420;7.036;2022-11-14T07:47:30;14.33;;;8.93;;
18623;SDS011;9441;51.420;7.036;2022-11-14T07:48:50;14.83;;;9.00;;
18623;SDS011;9441;51.420;7.036;2022-11-14T07:50:11;19.33;;;9.67;;
18623;SDS011;9441;51.420;7.036;2022-11-14T07:51:31;18.23;;;9.33;;
18623;SDS011;9441;51.420;7.036;2022-11-14T07:52:52;17.30;;;10.17;;
18623;SDS011;9441;51.420;7.036;2022-11-14T07:54:14;15.03;;;9.00;;
18623;SDS011;9441;51.420;7.036;2022-11-14T07:55:35;18.07;;;8.77;;
18623;SDS011;9441;51.420;7.036;2022-11-14T07:56:56;15.30;;;9.10;;
18623;SDS011;9441;51.420;7.036;2022-11-14T07:58:18;16.17;;;9.13;;
18623;SDS011;9441;51.420;7.036;2022-11-14T07:59:39;16.00;;;9.40;;
18623;SDS011;9441;51.420;7.036;2022-11-14T08:00:59;16.80;;;8.60;;
18623;SDS011;9441;51.420;7.036;2022-11-14T08:02:20;16.90;;;9.10;;
18623;SDS011;9441;51.420;7.036;2022-11-14T08:03:41;17.80;;;9.70;;
18623;SDS011;9441;51.420;7.036;2022-11-14T08:05:02;16.93;;;9.30;;